Data for 02/24/2005

Time Sea-Level Adjusted Pressure Absolute Pressure Temperature Relative Humidity Dew Point   
(mb) (inHg) (mb) (inHg) (C) (F) (%) (C) (F)
00:05 1021 30.15 851 25.13 -1.2 29.8 35 -14.8 5.3
00:10 1021 30.15 851 25.13 -1.4 29.5 36 -14.7 5.5
00:15 1021 30.15 851 25.13 -1.6 29.2 36 -14.8 5.3
00:20 1021 30.15 851 25.13 -1.5 29.3 36 -14.9 5.2
00:25 1021 30.15 851 25.13 -1.3 29.6 35 -14.9 5.2
00:30 1021 30.15 851 25.13 -1.3 29.7 35 -15 5
00:35 1022 30.18 851 25.13 -1.4 29.6 35 -15 5.1
00:40 1022 30.18 851 25.13 -1.7 28.9 38 -14.3 6.3
00:45 1022 30.18 851 25.13 -2 28.3 39 -14.1 6.6
00:50 1022 30.18 851 25.13 -2.2 28.1 39 -14.4 6.1
00:55 1022 30.18 851 25.13 -2.1 28.3 37 -14.8 5.4
01:00 1022 30.18 851 25.13 -1.8 28.7 37 -14.8 5.4
01:05 1022 30.18 851 25.13 -1.4 29.5 33 -15.6 3.9
01:10 1022 30.18 851 25.13 -0.7 30.8 32 -15.6 4
01:15 1022 30.18 851 25.13 -0.4 31.2 31 -15.6 3.9
01:20 1022 30.18 851 25.13 -0.3 31.4 31 -15.7 3.7
01:25 1022 30.18 851 25.13 -0.4 31.3 32 -15.3 4.4
01:30 1022 30.18 851 25.13 -0.7 30.7 33 -15 5
01:35 1022 30.18 851 25.13 -1 30.1 36 -14.4 6.2
01:40 1022 30.18 851 25.13 -1.4 29.5 40 -13.5 7.7
01:45 1022 30.18 851 25.13 -2.1 28.2 41 -13.8 7.1
01:50 1022 30.18 851 25.13 -2 28.3 38 -14.4 6
01:55 1022 30.18 851 25.13 -1.8 28.7 38 -14.4 6
02:00 1022 30.18 851 25.13 -1.4 29.5 36 -14.5 6
02:05 1022 30.18 851 25.13 -1.1 29.9 40 -13.2 8.3
02:10 1022 30.18 851 25.13 -1.4 29.5 40 -13.3 8.1
02:15 1022 30.18 851 25.13 -1.5 29.4 37 -14.3 6.3
02:20 1022 30.18 851 25.13 -1.3 29.7 38 -13.9 7.1
02:25 1022 30.18 851 25.13 -1.2 29.9 39 -13.3 8
02:30 1022 30.18 851 25.13 -1.7 29 41 -13.2 8.2
02:35 1022 30.18 851 25.13 -2 28.3 40 -14 6.8
02:40 1022 30.18 851 25.13 -2.2 28 40 -14.1 6.6
02:45 1022 30.18 851 25.13 -2.6 27.4 43 -13.6 7.4
02:50 1022 30.18 851 25.13 -2.8 26.9 43 -13.8 7.1
02:55 1022 30.18 851 25.13 -3 26.6 42 -14.1 6.6
03:00 1022 30.18 851 25.13 -2.6 27.2 41 -14.3 6.2
03:05 1022 30.18 851 25.13 -2.6 27.3 42 -13.9 7
03:10 1022 30.18 851 25.13 -2.7 27.1 41 -14.3 6.3
03:15 1022 30.18 851 25.13 -2.7 27.2 41 -14.3 6.3
03:20 1021 30.15 851 25.13 -2.6 27.4 41 -14 6.9
03:25 1021 30.15 851 25.13 -2.7 27.2 39 -14.7 5.6
03:30 1021 30.15 851 25.13 -1.9 28.6 35 -15.5 4
03:35 1021 30.15 851 25.13 -1.5 29.3 35 -15 4.9
03:40 1021 30.15 851 25.13 -1.4 29.5 34 -15.3 4.5
03:45 1021 30.15 851 25.13 -1.3 29.6 39 -13.7 7.4
03:50 1021 30.15 851 25.13 -1.5 29.2 41 -13.2 8.2
03:55 1021 30.15 851 25.13 -2.4 27.7 47 -12.4 9.8
04:00 1022 30.18 851 25.13 -2.9 26.8 48 -12.4 9.7
04:05 1022 30.18 851 25.13 -3.2 26.2 45 -13.6 7.5
04:10 1022 30.18 851 25.13 -3.2 26.2 44 -13.8 7.2
04:15 1021 30.15 851 25.13 -3.2 26.2 44 -13.9 6.9
04:20 1021 30.15 851 25.13 -3.2 26.2 44 -13.9 6.9
04:25 1021 30.15 851 25.13 -3.3 26.1 45 -13.6 7.4
04:30 1021 30.15 851 25.13 -3.7 25.3 48 -13.3 8.1
04:35 1021 30.15 851 25.13 -3.8 25.1 48 -13.4 7.9
04:40 1021 30.15 851 25.13 -3.7 25.4 48 -13.2 8.3
04:45 1022 30.18 851 25.13 -3.7 25.4 48 -13.2 8.2
04:50 1022 30.18 851 25.13 -3.3 26.1 44 -13.9 7
04:55 1022 30.18 851 25.13 -2.8 26.9 42 -14.2 6.5
05:00 1022 30.18 851 25.13 -2.5 27.5 41 -13.9 6.9
05:05 1022 30.18 851 25.13 -2.8 27 44 -13.5 7.7
05:10 1022 30.18 851 25.13 -3.5 25.7 45 -13.8 7.2
05:15 1022 30.18 851 25.13 -3.4 25.9 45 -13.6 7.5
05:20 1022 30.18 851 25.13 -3.4 25.9 46 -13.5 7.7
05:25 1021 30.15 851 25.13 -3.4 25.8 45 -13.6 7.5
05:30 1021 30.15 851 25.13 -3 26.5 42 -14.3 6.2
05:35 1021 30.15 851 25.13 -2.5 27.5 40 -14.2 6.4
05:40 1022 30.18 851 25.13 -2.6 27.3 41 -14 6.8
05:45 1022 30.18 851 25.13 -2.9 26.8 48 -12.5 9.5
05:50 1022 30.18 851 25.13 -3 26.6 43 -14 6.8
05:55 1022 30.18 851 25.13 -2.5 27.5 41 -14.1 6.6
06:00 1022 30.18 851 25.13 -2.6 27.4 42 -14 6.9
06:05 1021 30.15 851 25.13 -2.7 27.1 42 -14 6.7
06:10 1021 30.15 851 25.13 -3.1 26.5 44 -13.6 7.5
06:15 1021 30.15 851 25.13 -3.4 25.9 46 -13.6 7.6
06:20 1022 30.18 851 25.13 -3.6 25.5 46 -13.5 7.7
06:25 1022 30.18 851 25.13 -3.6 25.5 47 -13.5 7.8
06:30 1022 30.18 851 25.13 -3.5 25.8 47 -13.2 8.3
06:35 1022 30.18 851 25.13 -3.5 25.7 46 -13.5 7.7
06:40 1022 30.18 851 25.13 -3.2 26.3 44 -13.6 7.4
06:45 1022 30.18 851 25.13 -3.2 26.3 45 -13.5 7.7
06:50 1022 30.18 851 25.13 -3.4 25.9 47 -13.2 8.2
06:55 1022 30.18 851 25.13 -3.6 25.5 47 -13.3 8
07:00 1022 30.18 851 25.13 -3.5 25.7 46 -13.5 7.7
07:05 1022 30.18 851 25.13 -3.3 26.1 46 -13.5 7.8
07:10 1022 30.18 851 25.13 -3.2 26.3 45 -13.6 7.5
07:15 1022 30.18 851 25.13 -2.9 26.8 43 -13.8 7.2
07:20 1022 30.18 851 25.13 -2.7 27.1 43 -13.6 7.5
07:25 1022 30.18 851 25.13 -3 26.5 45 -13.3 8.1
07:30 1022 30.18 851 25.13 -3.4 25.8 47 -13.3 8.1
07:35 1022 30.18 851 25.13 -3.4 26 47 -13.2 8.3
07:40 1022 30.18 851 25.13 -3.3 26.2 46 -13.2 8.2
07:45 1022 30.18 851 25.13 -3.2 26.2 46 -13.2 8.3
07:50 1022 30.18 851 25.13 -3.1 26.4 46 -13.2 8.3
07:55 1022 30.18 851 25.13 -3 26.7 45 -13.2 8.2
08:00 1022 30.18 851 25.13 -2.6 27.4 45 -13.1 8.4
08:05 1022 30.18 851 25.13 -2.5 27.6 45 -13 8.7
08:10 1022 30.18 851 25.13 -2.2 28 44 -12.9 8.8
08:15 1022 30.18 851 25.13 -2 28.3 43 -13 8.7
08:20 1022 30.18 851 25.13 -1.9 28.6 43 -12.8 9
08:25 1022 30.18 851 25.13 -1.8 28.7 44 -12.7 9.2
08:30 1022 30.18 851 25.13 -1.3 29.6 42 -12.7 9.2
08:35 1022 30.18 851 25.13 -1.2 29.8 42 -12.7 9.2
08:40 1022 30.18 851 25.13 -0.9 30.4 41 -12.5 9.4
08:45 1022 30.18 851 25.13 -0.6 31 40 -12.5 9.5
08:50 1022 30.18 851 25.13 -0.2 31.6 39 -12.7 9.2
08:55 1022 30.18 851 25.13 0.4 32.7 37 -12.8 8.9
09:00 1022 30.18 851 25.13 0.9 33.7 35 -12.8 9
09:05 1022 30.18 851 25.13 1.1 34 35 -12.8 9
09:10 1022 30.18 852 25.16 1.3 34.3 35 -12.8 9
09:15 1022 30.18 852 25.16 1.5 34.8 34 -12.7 9.2
09:20 1022 30.18 852 25.16 1.9 35.4 35 -12 10.3
09:25 1022 30.18 852 25.16 1.6 34.9 35 -12.2 10.1
09:30 1022 30.18 852 25.16 2.3 36.2 34 -12 10.4
09:35 1022 30.18 852 25.16 3 37.3 32 -12.1 10.2
09:40 1022 30.18 852 25.16 3.1 37.6 32 -12 10.4
09:45 1022 30.18 852 25.16 2.5 36.5 33 -12.2 10.1
09:50 1022 30.18 852 25.16 2.9 37.1 32 -12.1 10.2
09:55 1022 30.18 851 25.13 3 37.4 32 -12.1 10.2
10:00 1022 30.18 851 25.13 3.5 38.3 30 -12.6 9.4
10:05 1022 30.18 851 25.13 3.9 39 30 -12.3 9.9
10:10 1022 30.18 851 25.13 4.5 40.1 30 -11.6 11.1
10:15 1022 30.18 851 25.13 5 40.9 30 -11.2 11.9
10:20 1022 30.18 851 25.13 5.3 41.6 30 -11 12.1
10:25 1022 30.18 851 25.13 5.3 41.6 30 -10.9 12.4
10:30 1022 30.18 852 25.16 5.1 41.1 31 -10.9 12.4
10:35 1022 30.18 852 25.16 4 39.2 32 -11.3 11.6
10:40 1022 30.18 852 25.16 4.2 39.5 32 -11 12.2
10:45 1022 30.18 852 25.16 4.2 39.6 34 -10.4 13.3
10:50 1022 30.18 852 25.16 4.4 39.9 32 -10.8 12.6
10:55 1022 30.18 852 25.16 4.5 40.1 33 -10.6 13
11:00 1022 30.18 852 25.16 5.5 41.8 31 -10.2 13.7
11:05 1022 30.18 852 25.16 4.8 40.6 32 -10.4 13.2
11:10 1022 30.18 852 25.16 4.4 40 34 -10 14
11:15 1022 30.18 852 25.16 4.5 40.1 32 -10.9 12.4
11:20 1022 30.18 852 25.16 5.6 42 31 -10.2 13.6
11:25 1022 30.18 852 25.16 4.9 40.8 32 -10.5 13.2
11:30 1022 30.18 852 25.16 5.8 42.4 30 -10.7 12.8
11:35 1022 30.18 852 25.16 6.7 44 27 -10.9 12.4
11:40 1022 30.18 852 25.16 7.2 44.9 27 -10.5 13.1
11:45 1022 30.18 852 25.16 6.8 44.2 27 -11 12.2
11:50 1022 30.18 852 25.16 6 42.8 30 -10.2 13.7
11:55 1022 30.18 851 25.13 6.5 43.6 29 -10.4 13.2
12:00 1022 30.18 851 25.13 7.2 44.9 28 -10.1 13.8
12:05 1022 30.18 851 25.13 7 44.6 29 -9.8 14.4
12:10 1022 30.18 851 25.13 7.1 44.8 29 -9.6 14.7
12:15 1022 30.18 851 25.13 7.3 45.1 30 -9.4 15.1
12:20 1022 30.18 851 25.13 7.2 44.9 30 -9.2 15.4
12:25 1022 30.18 851 25.13 7.4 45.3 29 -9.7 14.6
12:30 1022 30.18 851 25.13 7.8 46.1 28 -9.5 14.9
12:35 1022 30.18 851 25.13 8.1 46.7 28 -9.4 15.1
12:40 1022 30.18 851 25.13 8.7 47.6 27 -9.5 14.9
12:45 1022 30.18 851 25.13 8.2 46.7 28 -9.3 15.3
12:50 1022 30.18 851 25.13 7.7 45.8 29 -9.3 15.3
12:55 1022 30.18 851 25.13 8.2 46.7 26 -10.4 13.2
13:00 1021 30.15 851 25.13 8.6 47.4 24 -10.6 12.8
13:05 1021 30.15 851 25.13 9 48.2 25 -10.2 13.7
13:10 1021 30.15 851 25.13 9.5 49.1 23 -10.7 12.7
13:15 1021 30.15 851 25.13 9 48.2 25 -10 14
13:20 1021 30.15 850 25.1 9 48.1 25 -9.9 14.2
13:25 1021 30.15 850 25.1 9.5 49.1 24 -10.3 13.5
13:30 1021 30.15 850 25.1 9.8 49.6 24 -9.7 14.6
13:35 1021 30.15 850 25.1 9.7 49.5 25 -9.5 14.9
13:40 1021 30.15 850 25.1 8.8 47.8 28 -8.8 16.1
13:45 1021 30.15 850 25.1 9.1 48.3 26 -9.2 15.4
13:50 1021 30.15 850 25.1 9.6 49.3 26 -9.2 15.4
13:55 1021 30.15 850 25.1 9.9 49.7 25 -9.2 15.5
14:00 1021 30.15 850 25.1 10.1 50.2 23 -10.1 13.8
14:05 1021 30.15 850 25.1 10.5 50.9 23 -9.6 14.7
14:10 1021 30.15 850 25.1 10.5 50.9 24 -9.3 15.2
14:15 1021 30.15 850 25.1 10.7 51.3 23 -9.6 14.7
14:20 1021 30.15 850 25.1 10.5 50.9 24 -9.3 15.3
14:25 1021 30.15 850 25.1 10.4 50.8 25 -9 15.9
14:30 1021 30.15 850 25.1 10.6 51 25 -8.8 16.2
14:35 1021 30.15 850 25.1 10.2 50.4 25 -9 15.8
14:40 1021 30.15 850 25.1 9.5 49.2 26 -8.9 15.9
14:45 1021 30.15 850 25.1 9.6 49.4 24 -9.8 14.4
14:50 1021 30.15 850 25.1 10.4 50.8 24 -9.1 15.6
14:55 1020 30.12 850 25.1 10.7 51.2 23 -9.6 14.8
15:00 1020 30.12 850 25.1 11 51.7 22 -10.1 13.9
15:05 1020 30.12 850 25.1 11.2 52.2 22 -10 14.1
15:10 1020 30.12 850 25.1 10.9 51.7 21 -10.6 12.8
15:15 1020 30.12 850 25.1 10.8 51.4 21 -10.8 12.6
15:20 1020 30.12 850 25.1 11.2 52.2 19 -11.7 11
15:25 1020 30.12 850 25.1 11.2 52.2 20 -11 12.3
15:30 1020 30.12 850 25.1 11.3 52.3 20 -10.9 12.4
15:35 1020 30.12 849 25.07 11.1 51.9 19 -12 10.4
15:40 1020 30.12 849 25.07 10.5 50.9 20 -11.4 11.4
15:45 1020 30.12 849 25.07 10.8 51.5 19 -11.7 10.9
15:50 1020 30.12 849 25.07 11.7 53 18 -11.8 10.7
15:55 1020 30.12 849 25.07 11.6 52.8 18 -12 10.4
16:00 1020 30.12 849 25.07 11.2 52.2 19 -11.3 11.7
16:05 1020 30.12 849 25.07 11.1 52 19 -11.7 10.9
16:10 1020 30.12 849 25.07 11.3 52.4 19 -11.5 11.3
16:15 1020 30.12 849 25.07 11.2 52.2 18 -12 10.5
16:20 1020 30.12 849 25.07 10.3 50.5 19 -12.3 9.8
16:25 1020 30.12 849 25.07 10.1 50.1 20 -12.2 10
16:30 1020 30.12 849 25.07 10 49.9 20 -11.9 10.6
16:35 1020 30.12 849 25.07 10 50 20 -12 10.5
16:40 1020 30.12 849 25.07 9.8 49.7 20 -12.2 10.1
16:45 1020 30.12 849 25.07 10.2 50.4 21 -10.9 12.4
16:50 1020 30.12 849 25.07 10.4 50.7 22 -10.2 13.6
16:55 1020 30.12 849 25.07 10.2 50.3 21 -11 12.2
17:00 1020 30.12 849 25.07 10.4 50.7 23 -10.1 13.9
17:05 1020 30.12 849 25.07 9.9 49.9 23 -10.5 13.2
17:10 1020 30.12 849 25.07 9.9 49.9 22 -10.7 12.7
17:15 1020 30.12 849 25.07 9.7 49.4 24 -9.7 14.5
17:20 1020 30.12 849 25.07 9.4 48.9 23 -10.5 13.1
17:25 1020 30.12 849 25.07 9.5 49.1 25 -9.8 14.3
17:30 1020 30.12 849 25.07 8.8 47.8 25 -10.4 13.3
17:35 1020 30.12 849 25.07 8.3 46.9 25 -10.6 13
17:40 1020 30.12 849 25.07 8.3 47 25 -10.6 12.9
17:45 1020 30.12 849 25.07 8.2 46.8 26 -10.3 13.4
17:50 1020 30.12 849 25.07 8 46.3 26 -10.3 13.4
17:55 1020 30.12 849 25.07 7.7 45.9 29 -9.2 15.5
18:00 1020 30.12 849 25.07 7 44.7 31 -9 15.7
18:05 1020 30.12 849 25.07 6.4 43.5 37 -7.2 19
18:10 1020 30.12 849 25.07 5.7 42.3 38 -7.4 18.7
18:15 1020 30.12 849 25.07 5.3 41.6 37 -8.2 17.3
18:20 1020 30.12 849 25.07 4.9 40.9 39 -8 17.6
18:25 1020 30.12 849 25.07 4.8 40.6 39 -8.2 17.3
18:30 1020 30.12 849 25.07 4.3 39.7 40 -8.1 17.5
18:35 1020 30.12 849 25.07 3.9 39.1 41 -8.1 17.4
18:40 1020 30.12 849 25.07 3.5 38.3 43 -7.8 18
18:45 1020 30.12 849 25.07 2.9 37.3 46 -7.5 18.6
18:50 1020 30.12 849 25.07 2.4 36.4 48 -7.5 18.4
18:55 1020 30.12 849 25.07 2.2 36 47 -7.8 17.9
19:00 1020 30.12 849 25.07 2.1 35.7 49 -7.6 18.3
19:05 1020 30.12 849 25.07 1.9 35.4 49 -7.8 18
19:10 1020 30.12 849 25.07 1.9 35.5 47 -8.1 17.4
19:15 1020 30.12 849 25.07 2.1 35.8 44 -8.8 16.1
19:20 1020 30.12 849 25.07 2.7 36.9 41 -9.1 15.6
19:25 1020 30.12 849 25.07 3.1 37.5 40 -9.2 15.4
19:30 1020 30.12 849 25.07 3.4 38.1 38 -9.7 14.6
19:35 1020 30.12 849 25.07 3.4 38.1 39 -9.2 15.4
19:40 1020 30.12 849 25.07 3 37.4 41 -9 15.8
19:45 1020 30.12 849 25.07 2.8 37.1 41 -9.2 15.4
19:50 1020 30.12 849 25.07 2.8 37 41 -9.1 15.6
19:55 1020 30.12 849 25.07 2.7 36.9 42 -9 15.7
20:00 1020 30.12 849 25.07 2.7 36.9 40 -9.4 15.1
20:05 1020 30.12 849 25.07 2.5 36.6 42 -9.3 15.3
20:10 1020 30.12 849 25.07 2.2 36 43 -9.1 15.6
20:15 1020 30.12 849 25.07 1.8 35.2 46 -8.8 16.2
20:20 1020 30.12 849 25.07 1.4 34.5 47 -8.6 16.4
20:25 1020 30.12 849 25.07 1.1 34 49 -8.6 16.6
20:30 1020 30.12 849 25.07 1 33.8 47 -9 15.9
20:35 1020 30.12 849 25.07 1.3 34.3 46 -9.1 15.6
20:40 1020 30.12 849 25.07 1.5 34.8 44 -9.3 15.2
20:45 1020 30.12 849 25.07 1.5 34.6 46 -9.1 15.7
20:50 1020 30.12 849 25.07 1.3 34.3 46 -9.1 15.6
20:55 1020 30.12 849 25.07 1.1 34 47 -9 15.8
21:00 1020 30.12 849 25.07 1 33.8 47 -9 15.7
21:05 1020 30.12 849 25.07 1 33.7 47 -9 15.8
21:10 1020 30.12 849 25.07 0.9 33.7 47 -9.1 15.6
21:15 1020 30.12 849 25.07 1 33.8 47 -9.1 15.6
21:20 1020 30.12 849 25.07 1 33.9 46 -9.3 15.3
21:25 1020 30.12 849 25.07 1.3 34.3 44 -9.6 14.7
21:30 1020 30.12 849 25.07 1.4 34.5 43 -9.8 14.4
21:35 1020 30.12 849 25.07 1.3 34.4 43 -9.8 14.3
21:40 1020 30.12 849 25.07 1.4 34.5 43 -9.9 14.3
21:45 1020 30.12 849 25.07 1.3 34.4 44 -9.8 14.4
21:50 1020 30.12 849 25.07 1.2 34.1 44 -9.6 14.6
21:55 1020 30.12 849 25.07 1.1 34 44 -9.9 14.1
22:00 1019 30.09 849 25.07 1.2 34.1 44 -9.8 14.4
22:05 1019 30.09 849 25.07 1 33.9 44 -9.9 14.2
22:10 1019 30.09 849 25.07 1 33.7 44 -9.8 14.3
22:15 1019 30.09 849 25.07 0.9 33.5 45 -9.9 14.2
22:20 1019 30.09 849 25.07 0.9 33.7 44 -10.1 13.8
22:25 1019 30.09 849 25.07 1 33.8 44 -9.9 14.1
22:30 1019 30.09 849 25.07 0.8 33.4 44 -10.1 13.8
22:35 1019 30.09 849 25.07 0.8 33.4 44 -10.1 13.7
22:40 1019 30.09 849 25.07 0.8 33.4 44 -10.2 13.7
22:45 1019 30.09 849 25.07 1 33.7 43 -10.3 13.5
22:50 1019 30.09 849 25.07 1 33.8 43 -10.4 13.3
22:55 1019 30.09 849 25.07 0.9 33.5 43 -10.2 13.6
23:00 1019 30.09 849 25.07 0.8 33.4 44 -10.3 13.5
23:05 1019 30.09 849 25.07 0.9 33.7 42 -10.5 13.2
23:10 1019 30.09 848 25.04 1 33.8 42 -10.5 13
23:15 1019 30.09 848 25.04 1.1 34.1 42 -10.4 13.3
23:20 1019 30.09 848 25.04 1.1 33.9 41 -10.6 12.8
23:25 1019 30.09 848 25.04 1 33.8 43 -10.3 13.4
23:30 1019 30.09 848 25.04 0.5 33 45 -10.2 13.6
23:35 1019 30.09 848 25.04 0.3 32.5 45 -10.2 13.6
23:40 1019 30.09 848 25.04 0.3 32.5 44 -10.7 12.8
23:45 1019 30.09 848 25.04 0.5 33 43 -10.5 13.1
23:50 1019 30.09 848 25.04 0.6 33 43 -10.6 13
23:55 1019 30.09 848 25.04 0.6 33.1 43 -10.7 12.8
24:00 1019 30.09 848 25.04 0.5 32.9 43 -10.6 12.9